Time;durP1;ratioP1;P1;durP2;ratioP2;P2;SDS_P1;SDS_P2;PMS_P1;PMS_P2;Temp;Humidity;BMP_temperature;BMP_pressure;BME280_temperature;BME280_humidity;BME280_pressure;Samples;Min_cycle;Max_cycle;Signal;HPM_P1;HPM_P2
2021/10/14 00:01:25;;;;;;;1.10;1.10;;;;;;;4.97;78.94;101569.31;6386840;28;20210;-71
2021/10/14 00:04:30;;;;;;;1.50;1.40;;;;;;;4.87;78.61;101563.19;6388059;28;20192;-72
2021/10/14 00:07:34;;;;;;;1.63;1.53;;;;;;;4.97;77.94;101563.88;6387691;28;20221;-71
2021/10/14 00:10:40;;;;;;;1.50;1.40;;;;;;;4.95;78.15;101549.69;6386657;28;20211;-72
2021/10/14 00:13:44;;;;;;;1.80;1.47;;;;;;;4.85;78.60;101542.72;6387898;28;20187;-71
2021/10/14 00:16:48;;;;;;;1.40;1.40;;;;;;;4.95;78.40;101538.88;6387642;28;20184;-72
2021/10/14 00:19:52;;;;;;;3.87;1.77;;;;;;;4.89;78.19;101528.69;6387700;28;20240;-71
2021/10/14 00:22:56;;;;;;;1.40;1.30;;;;;;;4.88;78.07;101521.59;6387914;28;20246;-72
2021/10/14 00:26:02;;;;;;;1.57;1.47;;;;;;;4.94;77.74;101525.50;6386327;28;20373;-71
2021/10/14 00:29:06;;;;;;;2.20;1.10;;;;;;;4.96;78.71;101518.91;6386364;28;20187;-71
2021/10/14 00:32:11;;;;;;;1.20;1.20;;;;;;;4.96;78.03;101518.91;6387494;28;20239;-71
2021/10/14 00:35:16;;;;;;;1.03;1.03;;;;;;;5.03;78.08;101514.53;6387810;28;20192;-71
2021/10/14 00:38:20;;;;;;;3.63;1.00;;;;;;;5.14;78.16;101509.81;6387502;28;20266;-72
2021/10/14 00:41:26;;;;;;;1.13;1.13;;;;;;;5.07;77.74;101510.50;6386497;28;20289;-72
2021/10/14 00:44:42;;;;;;;1.13;1.13;;;;;;;5.01;78.61;101511.16;6389211;27;20182;-71
2021/10/14 00:47:46;;;;;;;2.03;1.37;;;;;;;4.96;77.66;101513.50;6392469;27;20184;-72
2021/10/14 00:50:50;;;;;;;2.20;1.50;;;;;;;4.92;78.11;101512.16;6392034;27;20217;-71
2021/10/14 00:53:55;;;;;;;1.13;1.07;;;;;;;4.96;78.32;101524.31;6391023;27;20214;-71
2021/10/14 00:57:01;;;;;;;1.50;1.50;;;;;;;4.94;78.48;101517.38;6390753;27;20511;-71
2021/10/14 01:00:09;;;;;;;1.57;1.40;;;;;;;4.88;78.02;101521.59;6392130;27;20182;-71
2021/10/14 01:03:20;;;;;;;2.73;1.50;;;;;;;4.91;78.03;101521.28;6379485;22;20230;-70
2021/10/14 01:06:24;;;;;;;3.60;1.47;;;;;;;4.86;77.99;101518.22;6265884;28;20194;-70
2021/10/14 01:09:28;;;;;;;5.03;1.73;;;;;;;4.75;78.48;101510.38;6265547;28;20218;-71
2021/10/14 01:12:35;;;;;;;7.23;1.40;;;;;;;4.72;78.38;101505.31;6265357;28;20241;-71
2021/10/14 01:15:39;;;;;;;1.57;1.47;;;;;;;4.86;78.45;101518.22;6265112;28;20198;-71
2021/10/14 01:18:43;;;;;;;2.60;1.63;;;;;;;4.73;78.72;101527.78;6265484;28;20195;-70
2021/10/14 01:21:50;;;;;;;3.03;1.47;;;;;;;4.73;78.84;101507.00;6265290;28;20260;-71
2021/10/14 01:24:54;;;;;;;1.40;1.30;;;;;;;4.76;78.75;101506.69;6264498;28;20255;-71
2021/10/14 01:27:59;;;;;;;1.40;1.40;;;;;;;4.73;79.29;101501.59;6264506;28;20253;-71
2021/10/14 01:31:03;;;;;;;1.37;1.37;;;;;;;4.74;78.93;101503.31;6264104;28;20518;-71
2021/10/14 01:34:08;;;;;;;1.17;1.17;;;;;;;4.70;79.38;101496.50;6265795;28;20191;-70
2021/10/14 01:37:14;;;;;;;1.57;1.47;;;;;;;4.64;79.69;101497.19;6268713;28;20367;-71
2021/10/14 01:40:18;;;;;;;3.40;1.27;;;;;;;4.80;79.46;101491.81;6269394;28;20186;-71
2021/10/14 01:43:23;;;;;;;4.60;1.40;;;;;;;4.81;79.30;101482.69;6266013;28;20192;-70
2021/10/14 01:46:27;;;;;;;3.13;1.30;;;;;;;4.89;79.48;101480.03;6264644;28;20249;-71
2021/10/14 01:49:31;;;;;;;1.17;1.00;;;;;;;4.97;79.05;101488.16;6263621;28;20567;-71
2021/10/14 01:52:36;;;;;;;1.13;1.00;;;;;;;5.06;78.90;101484.47;6264716;28;20300;-72
2021/10/14 01:55:41;;;;;;;1.07;1.07;;;;;;;5.21;78.32;101473.00;6263336;28;20505;-71
2021/10/14 01:58:45;;;;;;;1.10;1.10;;;;;;;5.25;77.89;101475.19;6264728;28;20256;-71
2021/10/14 02:01:49;;;;;;;1.50;1.10;;;;;;;5.33;77.07;101463.53;6262936;28;20621;-71
2021/10/14 02:04:53;;;;;;;2.00;1.20;;;;;;;5.37;77.56;101456.75;6299235;28;20321;-71
2021/10/14 02:08:00;;;;;;;1.13;1.13;;;;;;;5.40;77.62;101451.03;6314191;28;20265;-71
2021/10/14 02:11:04;;;;;;;3.23;1.17;;;;;;;5.51;77.02;101445.28;6314156;28;20213;-71
2021/10/14 02:14:09;;;;;;;1.30;1.30;;;;;;;5.50;77.14;101451.69;6314073;28;20256;-71
2021/10/14 02:17:14;;;;;;;4.03;1.10;;;;;;;5.64;75.96;101442.91;6313639;28;20186;-71
2021/10/14 02:20:19;;;;;;;1.30;1.10;;;;;;;5.57;76.44;101431.09;6312939;28;20192;-71
2021/10/14 02:23:24;;;;;;;2.10;1.20;;;;;;;5.61;75.72;101424.28;6313799;28;20189;-71
2021/10/14 02:26:28;;;;;;;1.60;1.50;;;;;;;5.61;76.35;101427.00;6313413;28;20257;-71
2021/10/14 02:29:33;;;;;;;1.33;1.20;;;;;;;5.62;76.00;101423.28;6313235;28;20230;-71
2021/10/14 02:32:37;;;;;;;4.37;1.20;;;;;;;5.67;76.60;101420.91;6312188;28;20443;-71
2021/10/14 02:35:41;;;;;;;1.27;1.27;;;;;;;5.70;76.53;101412.44;6313161;28;20217;-71
2021/10/14 02:38:47;;;;;;;1.43;1.33;;;;;;;5.87;75.76;101395.19;6313068;28;20187;-71
2021/10/14 02:41:51;;;;;;;1.33;1.27;;;;;;;5.94;75.97;101396.16;6313337;28;20248;-71
2021/10/14 02:44:55;;;;;;;1.40;1.30;;;;;;;6.04;76.35;101391.41;6313141;28;20256;-71
2021/10/14 02:47:59;;;;;;;1.60;1.50;;;;;;;6.09;75.63;101389.00;6312838;28;20187;-71
2021/10/14 02:51:03;;;;;;;1.30;1.30;;;;;;;5.93;77.51;101399.06;6311691;28;20190;-71
2021/10/14 02:54:09;;;;;;;1.20;1.20;;;;;;;5.99;77.77;101382.94;6311739;28;20185;-71
2021/10/14 02:57:13;;;;;;;1.13;1.10;;;;;;;5.93;78.55;101390.94;6311804;28;20383;-71
2021/10/14 03:00:17;;;;;;;1.53;1.07;;;;;;;5.94;78.72;101389.91;6312496;28;20218;-71
2021/10/14 03:03:22;;;;;;;3.47;1.17;;;;;;;5.94;79.71;101379.91;6312150;28;20237;-71
2021/10/14 03:06:27;;;;;;;1.20;1.20;;;;;;;6.04;79.54;101369.72;6311950;28;20192;-71
2021/10/14 03:09:32;;;;;;;1.07;1.07;;;;;;;6.04;79.83;101380.56;6311347;28;20373;-71
2021/10/14 03:12:37;;;;;;;1.33;1.10;;;;;;;6.10;79.68;101370.91;6312527;28;20217;-71
2021/10/14 03:15:41;;;;;;;1.00;1.00;;;;;;;6.15;80.48;101374.78;6311387;28;20415;-71
2021/10/14 03:18:45;;;;;;;2.77;1.10;;;;;;;6.21;80.18;101365.94;6311643;28;20260;-71
2021/10/14 03:21:49;;;;;;;1.20;1.13;;;;;;;6.25;80.44;101372.69;6311593;28;20194;-71
2021/10/14 03:24:55;;;;;;;1.13;1.03;;;;;;;6.33;80.46;101369.09;6312099;28;20194;-71
2021/10/14 03:27:59;;;;;;;0.90;0.90;;;;;;;6.25;81.08;101366.44;6311027;28;20428;-72
2021/10/14 03:31:03;;;;;;;1.60;0.90;;;;;;;6.38;80.60;101368.56;6311091;28;20525;-71
2021/10/14 03:34:10;;;;;;;1.20;1.17;;;;;;;6.45;80.50;101369.53;6311975;28;20221;-71
2021/10/14 03:37:14;;;;;;;2.00;1.00;;;;;;;6.44;81.01;101359.75;6311006;28;20382;-70
2021/10/14 03:40:20;;;;;;;1.70;0.80;;;;;;;6.52;80.33;101357.00;6311014;28;20468;-71
2021/10/14 03:43:24;;;;;;;1.50;1.13;;;;;;;6.64;79.72;101360.97;6312215;28;20191;-70
2021/10/14 03:46:28;;;;;;;1.07;1.00;;;;;;;6.56;80.61;101355.59;6311802;28;20232;-71
2021/10/14 03:49:32;;;;;;;0.90;0.90;;;;;;;6.68;79.81;101362.28;6310819;28;20434;-71
2021/10/14 03:52:38;;;;;;;0.90;0.90;;;;;;;6.72;80.05;101358.22;6311614;28;20221;-71
2021/10/14 03:55:43;;;;;;;0.73;0.73;;;;;;;6.80;79.60;101350.03;6310804;28;20469;-71
2021/10/14 03:58:48;;;;;;;2.13;0.90;;;;;;;6.85;79.53;101348.47;6311781;28;20222;-72
2021/10/14 04:01:52;;;;;;;1.40;1.00;;;;;;;6.82;80.31;101342.56;6311588;28;20271;-71
2021/10/14 04:04:59;;;;;;;0.90;0.90;;;;;;;6.84;80.15;101318.78;6310738;28;20280;-72
2021/10/14 04:08:04;;;;;;;0.90;0.90;;;;;;;6.91;80.03;101325.19;6311986;28;20190;-71
2021/10/14 04:11:10;;;;;;;1.10;1.10;;;;;;;6.95;79.99;101321.09;6310600;28;20187;-71
2021/10/14 04:14:15;;;;;;;1.40;1.00;;;;;;;6.89;80.34;101322.66;6311473;28;20213;-71
2021/10/14 04:17:19;;;;;;;0.80;0.80;;;;;;;6.95;80.30;101315.66;6310631;28;20425;-71
2021/10/14 04:20:24;;;;;;;0.70;0.70;;;;;;;6.98;79.98;101299.03;6316046;28;20187;-71
2021/10/14 04:23:28;;;;;;;0.80;0.80;;;;;;;6.98;80.44;101298.19;6316256;28;20262;-71
2021/10/14 04:26:34;;;;;;;2.43;1.00;;;;;;;7.02;80.04;101311.19;6316591;28;20187;-72
2021/10/14 04:29:38;;;;;;;0.87;0.87;;;;;;;7.13;79.56;101297.19;6315293;28;20483;-72
2021/10/14 04:32:43;;;;;;;0.80;0.80;;;;;;;7.06;79.61;101307.06;6315679;28;20456;-72
2021/10/14 04:35:47;;;;;;;0.87;0.87;;;;;;;7.16;79.42;101312.28;6316001;28;20191;-71
2021/10/14 04:38:53;;;;;;;3.40;0.90;;;;;;;7.26;78.79;101291.16;6316017;28;20243;-72
2021/10/14 04:41:58;;;;;;;2.13;0.97;;;;;;;7.33;78.35;101303.78;6315205;28;20214;-71
2021/10/14 04:45:03;;;;;;;0.93;0.93;;;;;;;7.41;78.18;101284.72;6316117;28;20192;-71
2021/10/14 04:48:09;;;;;;;0.80;0.80;;;;;;;7.46;77.91;101298.56;6315631;28;20187;-72
2021/10/14 04:51:13;;;;;;;2.37;1.00;;;;;;;7.45;78.15;101285.16;6316017;28;20183;-71
2021/10/14 04:54:17;;;;;;;1.80;0.93;;;;;;;7.52;77.90;101288.84;6315076;28;20211;-70
2021/10/14 04:57:23;;;;;;;0.97;0.90;;;;;;;7.52;77.91;101289.66;6315242;28;20184;-71
2021/10/14 05:00:27;;;;;;;1.50;0.80;;;;;;;7.52;77.95;101281.50;6315711;28;20187;-71
2021/10/14 05:03:31;;;;;;;2.97;1.10;;;;;;;7.52;78.23;101276.09;6315189;28;20290;-71
2021/10/14 05:06:35;;;;;;;1.80;0.80;;;;;;;7.66;77.23;101265.41;6314666;28;20183;-71
2021/10/14 05:09:42;;;;;;;1.83;1.00;;;;;;;7.63;77.59;101261.19;6315532;28;20183;-71
2021/10/14 05:12:48;;;;;;;1.00;1.00;;;;;;;7.67;78.34;101256.25;6315417;28;20184;-71
2021/10/14 05:15:52;;;;;;;1.30;0.90;;;;;;;7.69;78.07;101251.47;6314503;28;20215;-71
2021/10/14 05:18:57;;;;;;;7.13;0.93;;;;;;;7.65;78.67;101231.16;6313991;28;20513;-71
2021/10/14 05:22:01;;;;;;;1.00;1.00;;;;;;;7.65;79.29;101236.59;6314351;28;20184;-72
2021/10/14 05:25:06;;;;;;;2.03;0.90;;;;;;;7.71;78.43;101241.25;6314948;28;20195;-71
2021/10/14 05:28:13;;;;;;;0.87;0.87;;;;;;;7.71;78.00;101244.81;6314453;28;20184;-70
2021/10/14 05:31:18;;;;;;;3.03;0.93;;;;;;;7.81;77.29;101236.38;6314710;28;20184;-71
2021/10/14 05:34:22;;;;;;;0.70;0.70;;;;;;;7.90;77.06;101236.09;6313713;28;20461;-72
2021/10/14 05:37:27;;;;;;;1.07;0.90;;;;;;;7.86;76.59;101239.34;6314797;28;20253;-72
2021/10/14 05:40:31;;;;;;;1.90;0.90;;;;;;;7.93;76.53;101245.75;6314383;28;20184;-72
2021/10/14 05:43:37;;;;;;;0.90;0.90;;;;;;;7.85;76.92;101232.25;6314185;28;20194;-72
2021/10/14 05:46:41;;;;;;;1.85;1.02;;;;;;;7.83;76.93;101228.91;6313816;28;20191;-72
2021/10/14 05:49:45;;;;;;;1.08;1.05;;;;;;;7.88;76.97;101218.31;6314101;28;20281;-71
2021/10/14 05:52:49;;;;;;;0.88;0.88;;;;;;;7.95;75.65;101216.50;6313379;28;20486;-71
2021/10/14 05:55:53;;;;;;;1.45;1.10;;;;;;;7.93;75.12;101218.56;6314396;28;20211;-72
2021/10/14 05:59:00;;;;;;;4.10;1.17;;;;;;;8.05;75.23;101227.91;6313939;28;20215;-72
2021/10/14 06:02:04;;;;;;;7.40;0.90;;;;;;;8.01;74.68;101232.06;6312848;28;20426;-72
2021/10/14 06:05:09;;;;;;;1.38;1.20;;;;;;;8.15;74.00;101223.00;6312286;28;20231;-72
2021/10/14 06:08:13;;;;;;;2.33;1.25;;;;;;;8.12;73.34;101212.50;6313747;28;20186;-72
2021/10/14 06:11:17;;;;;;;3.05;1.02;;;;;;;8.22;72.62;101212.22;6312687;28;20183;-71
2021/10/14 06:14:23;;;;;;;1.95;1.02;;;;;;;8.18;73.36;101206.31;6313819;28;20211;-72
2021/10/14 06:17:27;;;;;;;1.03;1.03;;;;;;;8.24;72.90;101199.28;6313890;28;20184;-71
2021/10/14 06:20:31;;;;;;;1.10;1.00;;;;;;;8.27;72.82;101188.06;6312730;28;20224;-71
2021/10/14 06:23:36;;;;;;;3.75;0.93;;;;;;;8.31;72.45;101182.03;6312284;28;20479;-72
2021/10/14 06:26:40;;;;;;;1.10;1.00;;;;;;;8.38;72.21;101180.19;6312787;28;20190;-71
2021/10/14 06:29:46;;;;;;;1.35;1.00;;;;;;;8.36;72.51;101179.56;6312325;28;20206;-71
2021/10/14 06:32:53;;;;;;;4.60;1.13;;;;;;;8.36;73.14;101170.56;6312998;28;20188;-71
2021/10/14 06:35:58;;;;;;;1.40;1.20;;;;;;;8.51;72.83;101179.47;6313301;28;20207;-71
2021/10/14 06:39:02;;;;;;;1.30;1.00;;;;;;;8.55;72.84;101181.59;6311908;28;20386;-71
2021/10/14 06:42:06;;;;;;;1.05;1.02;;;;;;;8.55;72.93;101175.34;6312049;28;20184;-71
2021/10/14 06:45:12;;;;;;;0.93;0.85;;;;;;;8.50;73.76;101167.75;6312930;28;20187;-72
2021/10/14 06:48:17;;;;;;;1.73;0.80;;;;;;;8.56;72.96;101172.44;6312519;28;20251;-72
2021/10/14 06:51:21;;;;;;;3.67;0.95;;;;;;;8.66;73.21;101167.50;6313229;28;20187;-72
2021/10/14 06:54:25;;;;;;;1.17;1.10;;;;;;;8.67;73.03;101162.91;6312920;28;20211;-72
2021/10/14 06:57:30;;;;;;;3.53;1.40;;;;;;;8.63;73.19;101172.47;6312859;28;20247;-72
2021/10/14 07:00:35;;;;;;;2.97;1.10;;;;;;;8.57;74.31;101174.13;6316202;28;20184;-73
2021/10/14 07:03:40;;;;;;;1.65;0.90;;;;;;;8.73;73.80;101171.09;6315454;28;20294;-72
2021/10/14 07:06:45;;;;;;;1.48;1.38;;;;;;;8.74;74.20;101170.06;6314264;28;20236;-71
2021/10/14 07:09:49;;;;;;;3.53;1.25;;;;;;;8.86;74.58;101161.38;6311719;28;20291;-71
2021/10/14 07:12:53;;;;;;;5.28;1.10;;;;;;;8.91;74.87;101153.47;6312152;28;20215;-71
2021/10/14 07:15:59;;;;;;;4.95;1.27;;;;;;;8.97;75.12;101152.66;6312459;28;20286;-71
2021/10/14 07:19:03;;;;;;;5.70;1.40;;;;;;;9.11;74.63;101143.53;6312037;28;20199;-72
2021/10/14 07:22:08;;;;;;;2.05;1.30;;;;;;;9.12;74.64;101143.34;6312611;28;20468;-73
2021/10/14 07:25:13;;;;;;;2.75;1.63;;;;;;;9.11;74.92;101138.94;6311686;28;20197;-71
2021/10/14 07:28:17;;;;;;;5.97;1.73;;;;;;;9.13;75.66;101125.13;6312471;28;20260;-72
2021/10/14 07:31:23;;;;;;;1.40;1.30;;;;;;;9.15;75.55;101118.44;6310987;28;20490;-72
2021/10/14 07:34:27;;;;;;;2.47;1.30;;;;;;;9.24;75.57;101119.13;6311924;28;20366;-72
2021/10/14 07:37:35;;;;;;;1.55;1.52;;;;;;;9.28;75.26;101112.22;6312338;28;20188;-72
2021/10/14 07:40:41;;;;;;;2.92;1.40;;;;;;;9.34;76.37;101116.88;6311959;28;20190;-72
2021/10/14 07:43:45;;;;;;;3.67;1.80;;;;;;;9.34;76.14;101114.16;6312217;28;20183;-72
2021/10/14 07:46:51;;;;;;;1.23;1.23;;;;;;;9.32;76.77;101108.06;6311880;28;20192;-72
2021/10/14 07:49:55;;;;;;;1.40;1.40;;;;;;;9.36;76.85;101098.44;6312128;28;20266;-72
2021/10/14 07:52:59;;;;;;;2.13;1.40;;;;;;;9.45;76.28;101097.19;6313320;28;20293;-72
2021/10/14 07:56:05;;;;;;;2.50;1.33;;;;;;;9.45;76.86;101098.06;6320182;28;20291;-72
2021/10/14 07:59:09;;;;;;;8.80;1.58;;;;;;;9.50;76.36;101100.16;6320017;28;20189;-72
2021/10/14 08:02:16;;;;;;;3.00;1.30;;;;;;;9.50;76.87;101089.25;6319869;28;20183;-72
2021/10/14 08:05:20;;;;;;;4.10;1.60;;;;;;;9.55;77.13;101091.41;6318851;28;20238;-72
2021/10/14 08:08:25;;;;;;;7.40;1.40;;;;;;;9.59;77.19;101088.06;6320257;28;20261;-72
2021/10/14 08:11:30;;;;;;;5.68;1.50;;;;;;;9.69;77.21;101083.06;6320149;28;20190;-72
2021/10/14 08:14:34;;;;;;;3.22;1.40;;;;;;;9.68;77.78;101070.47;6320169;28;20190;-72
2021/10/14 08:17:40;;;;;;;8.73;1.42;;;;;;;9.74;77.57;101075.09;6320133;28;20183;-72
2021/10/14 08:20:45;;;;;;;5.50;1.70;;;;;;;9.63;78.02;101074.88;6319691;28;20221;-72
2021/10/14 08:23:49;;;;;;;6.72;1.88;;;;;;;9.73;78.90;101062.50;6320042;28;20214;-72
2021/10/14 08:26:53;;;;;;;1.70;1.60;;;;;;;9.76;78.54;101061.25;6319571;28;20218;-72
2021/10/14 08:29:57;;;;;;;2.03;1.33;;;;;;;9.85;77.96;101055.44;6318965;28;20183;-71
2021/10/14 08:33:03;;;;;;;12.35;1.35;;;;;;;9.87;78.58;101053.34;6319365;28;20246;-72
2021/10/14 08:36:10;;;;;;;5.22;1.30;;;;;;;9.89;78.52;101055.84;6319647;28;20211;-72
2021/10/14 08:39:15;;;;;;;4.72;1.30;;;;;;;9.92;78.31;101059.00;6318431;28;20413;-71
2021/10/14 08:42:23;;;;;;;5.35;1.40;;;;;;;10.01;78.86;101057.75;6319400;28;20259;-71
2021/10/14 08:45:28;;;;;;;4.70;1.40;;;;;;;9.97;78.73;101059.22;6319796;28;20188;-72
2021/10/14 08:48:35;;;;;;;3.05;1.40;;;;;;;10.08;77.91;101055.88;6319551;28;20253;-71
2021/10/14 08:51:39;;;;;;;1.15;1.05;;;;;;;10.07;78.64;101042.44;6318884;28;20187;-71
2021/10/14 08:54:44;;;;;;;3.47;1.75;;;;;;;10.19;78.04;101045.44;6318222;28;20526;-72
2021/10/14 08:57:48;;;;;;;2.85;1.50;;;;;;;10.25;78.52;101041.84;6319392;28;20222;-72
2021/10/14 09:01:08;;;;;;;2.97;1.98;;;;;;;10.22;78.26;101039.56;6318206;28;20215;-71
2021/10/14 09:04:18;;;;;;;3.17;1.50;;;;;;;10.20;78.76;101036.19;6318147;28;20306;-72
2021/10/14 09:07:25;;;;;;;3.47;1.35;;;;;;;10.31;78.28;101032.84;6313905;28;20449;-72
2021/10/14 09:10:32;;;;;;;1.75;1.40;;;;;;;10.36;78.21;101041.22;6314166;28;20246;-72
2021/10/14 09:13:36;;;;;;;2.90;1.38;;;;;;;10.41;78.17;101033.25;6315204;28;20191;-72
2021/10/14 09:16:41;;;;;;;2.28;1.27;;;;;;;10.56;77.40;101033.84;6314092;28;20372;-72
2021/10/14 09:19:46;;;;;;;2.83;1.58;;;;;;;10.50;77.83;101026.53;6314145;28;20471;-73
2021/10/14 09:22:54;;;;;;;1.75;1.08;;;;;;;10.56;77.52;101025.69;6315324;28;20184;-72
2021/10/14 09:25:58;;;;;;;1.40;1.30;;;;;;;10.58;77.46;101023.56;6315146;28;20257;-71
2021/10/14 09:29:09;;;;;;;6.78;1.45;;;;;;;10.67;77.81;101027.75;6315194;28;20190;-72
2021/10/14 09:32:15;;;;;;;1.25;1.20;;;;;;;10.69;77.52;101017.47;6314279;28;20192;-72
2021/10/14 09:35:26;;;;;;;1.85;1.38;;;;;;;10.77;76.96;101017.25;6314682;28;20234;-72
2021/10/14 09:38:33;;;;;;;2.97;1.23;;;;;;;10.82;76.65;101014.72;6313741;28;20552;-72
2021/10/14 09:41:39;;;;;;;1.23;1.13;;;;;;;10.72;77.46;101003.41;6313901;28;20191;-72
2021/10/14 09:44:50;;;;;;;4.47;1.52;;;;;;;10.81;77.04;101007.56;6313601;28;20468;-73
2021/10/14 09:48:11;;;;;;;6.90;1.40;;;;;;;10.73;77.16;101005.09;6314664;28;20194;-72
2021/10/14 09:51:17;;;;;;;1.38;1.10;;;;;;;10.76;77.48;101003.81;6314687;28;20222;-73
2021/10/14 09:54:21;;;;;;;1.60;1.13;;;;;;;10.80;76.92;101000.44;6314684;28;20183;-72
2021/10/14 09:57:26;;;;;;;6.00;1.30;;;;;;;10.87;76.92;100990.34;6314402;28;20230;-72
2021/10/14 10:00:30;;;;;;;2.70;1.23;;;;;;;11.01;76.04;100996.59;6315441;28;20255;-72
2021/10/14 10:03:36;;;;;;;1.85;1.08;;;;;;;11.07;76.00;100988.38;6314115;28;20223;-72
2021/10/14 10:06:43;;;;;;;2.78;1.33;;;;;;;11.05;76.17;100987.75;6314333;28;20254;-72
2021/10/14 10:10:07;;;;;;;1.27;1.20;;;;;;;11.08;76.75;100970.09;6314915;28;20184;-72
2021/10/14 10:13:17;;;;;;;6.03;1.48;;;;;;;11.15;76.17;100977.19;6313839;28;20371;-72
2021/10/14 10:16:23;;;;;;;9.73;1.00;;;;;;;11.21;76.13;100972.75;6313882;28;20270;-71
2021/10/14 10:19:47;;;;;;;1.60;1.00;;;;;;;11.20;76.44;100963.72;6313650;28;20381;-72
2021/10/14 10:22:53;;;;;;;2.83;0.95;;;;;;;11.12;77.05;100944.84;6313912;28;20184;-74
2021/10/14 10:25:57;;;;;;;3.50;1.00;;;;;;;11.16;77.25;100946.13;6313816;28;20237;-72
2021/10/14 10:29:03;;;;;;;1.77;1.10;;;;;;;11.08;77.53;100951.81;6313990;28;20263;-72
2021/10/14 10:32:30;;;;;;;0.70;0.70;;;;;;;11.01;78.15;100948.28;6314367;28;20315;-72
2021/10/14 10:35:45;;;;;;;0.98;0.98;;;;;;;11.14;78.15;100948.22;6314315;28;20183;-72
2021/10/14 10:38:51;;;;;;;6.30;1.15;;;;;;;11.09;78.73;100953.47;6296080;28;20214;-72
2021/10/14 10:42:13;;;;;;;2.35;1.00;;;;;;;11.14;78.96;100945.50;6313365;28;20251;-72
2021/10/14 10:45:19;;;;;;;0.80;0.80;;;;;;;11.16;78.65;100951.59;6312976;28;20191;-72
2021/10/14 10:48:34;;;;;;;1.73;0.90;;;;;;;11.25;78.46;100950.25;6313869;28;20264;-71
2021/10/14 10:51:38;;;;;;;2.53;1.08;;;;;;;11.15;79.25;100944.44;6312916;28;20388;-72
2021/10/14 10:54:45;;;;;;;0.82;0.80;;;;;;;11.15;79.59;100944.44;6312768;28;20494;-74
2021/10/14 10:57:51;;;;;;;0.70;0.70;;;;;;;11.16;79.66;100934.34;6313226;28;20239;-72
2021/10/14 11:00:55;;;;;;;2.88;1.05;;;;;;;11.26;79.62;100935.56;6313423;28;20183;-72
2021/10/14 11:04:01;;;;;;;3.58;0.98;;;;;;;11.22;79.84;100928.84;6313281;28;20288;-72
2021/10/14 11:07:11;;;;;;;1.00;1.00;;;;;;;11.23;79.86;100936.00;6313219;28;20196;-73
2021/10/14 11:10:28;;;;;;;1.45;1.33;;;;;;;11.30;80.27;100923.13;6313661;28;20253;-72
2021/10/14 11:13:34;;;;;;;1.00;1.00;;;;;;;11.44;79.32;100921.16;6312558;28;20223;-72
2021/10/14 11:16:40;;;;;;;2.95;1.15;;;;;;;11.39;79.72;100914.66;6312259;28;20467;-73
2021/10/14 11:19:44;;;;;;;4.18;2.08;;;;;;;11.34;80.22;100904.41;6312192;28;20473;-71
2021/10/14 11:22:48;;;;;;;3.25;1.00;;;;;;;11.31;80.59;100900.22;6312285;28;20334;-72
2021/10/14 11:26:12;;;;;;;4.72;2.75;;;;;;;11.33;81.10;100900.84;6312161;28;20247;-72
2021/10/14 11:29:18;;;;;;;1.88;1.80;;;;;;;11.29;81.72;100891.41;6312984;28;20183;-72
2021/10/14 11:32:32;;;;;;;1.90;1.90;;;;;;;11.35;81.38;100891.59;6313360;28;20286;-72
2021/10/14 11:35:36;;;;;;;2.38;1.10;;;;;;;11.36;81.17;100885.91;6313657;28;20204;-72
2021/10/14 11:38:41;;;;;;;0.80;0.80;;;;;;;11.37;81.48;100882.13;6311969;28;20565;-72
2021/10/14 11:41:53;;;;;;;2.40;2.00;;;;;;;11.30;81.82;100882.16;6312848;28;20439;-72
2021/10/14 11:44:59;;;;;;;1.83;1.00;;;;;;;11.27;82.14;100871.66;6311939;28;20480;-72
2021/10/14 11:48:04;;;;;;;0.88;0.88;;;;;;;11.30;82.47;100871.22;6313116;28;20195;-71
2021/10/14 11:51:11;;;;;;;0.80;0.80;;;;;;;11.40;82.15;100875.38;6312857;28;20183;-72
2021/10/14 11:54:17;;;;;;;1.13;1.10;;;;;;;11.25;83.07;100862.84;6313121;28;20281;-71
2021/10/14 11:57:31;;;;;;;1.08;0.88;;;;;;;11.23;83.44;100862.25;6312944;28;20211;-73
2021/10/14 12:00:35;;;;;;;1.42;1.33;;;;;;;11.28;83.40;100861.59;6311998;28;20517;-72
2021/10/14 12:03:43;;;;;;;0.88;0.88;;;;;;;11.35;82.98;100850.63;6304835;28;20231;-72
2021/10/14 12:06:49;;;;;;;0.70;0.70;;;;;;;11.15;84.33;100842.56;6312677;28;20206;-71
2021/10/14 12:10:36;;;;;;;1.48;1.27;;;;;;;11.27;84.09;100841.63;6312808;28;20327;-72
2021/10/14 12:13:42;;;;;;;3.63;1.10;;;;;;;11.14;85.68;100839.00;6311866;28;20381;-71
2021/10/14 12:17:04;;;;;;;0.68;0.68;;;;;;;11.19;86.51;100836.44;6313754;28;20184;-72
2021/10/14 12:20:12;;;;;;;1.05;1.05;;;;;;;11.28;86.23;100834.25;6314594;28;20298;-72
2021/10/14 12:23:16;;;;;;;2.75;1.00;;;;;;;11.31;86.97;100829.22;6312774;28;20457;-72
2021/10/14 12:26:20;;;;;;;1.00;1.00;;;;;;;11.22;88.53;100819.59;6310600;28;20274;-71
2021/10/14 12:29:29;;;;;;;0.80;0.80;;;;;;;11.21;88.57;100819.84;6310175;28;20413;-72
2021/10/14 12:32:33;;;;;;;0.80;0.80;;;;;;;11.18;89.41;100818.38;6311243;28;20184;-72
2021/10/14 12:35:39;;;;;;;1.10;1.10;;;;;;;11.17;89.76;100822.16;6310922;28;20184;-72
2021/10/14 12:38:43;;;;;;;1.30;0.90;;;;;;;11.24;89.35;100814.78;6310130;28;20434;-72
2021/10/14 12:41:53;;;;;;;1.08;1.08;;;;;;;11.22;89.96;100814.13;6314432;28;20184;-72
2021/10/14 12:45:00;;;;;;;1.27;0.98;;;;;;;11.19;90.33;100806.41;6314585;28;20413;-72
2021/10/14 12:48:20;;;;;;;0.95;0.90;;;;;;;11.15;91.37;100802.44;6314662;28;20191;-72
2021/10/14 12:51:25;;;;;;;1.17;1.17;;;;;;;11.22;90.83;100797.75;6315014;28;20210;-73
2021/10/14 12:54:29;;;;;;;1.10;1.00;;;;;;;11.25;90.41;100791.84;6315507;28;20184;-73
2021/10/14 12:57:33;;;;;;;2.80;1.20;;;;;;;11.22;90.77;100780.56;6315675;28;20285;-73
2021/10/14 13:00:39;;;;;;;1.10;1.10;;;;;;;11.19;91.10;100781.84;6315465;28;20222;-73
2021/10/14 13:03:43;;;;;;;2.05;1.02;;;;;;;11.18;91.29;100780.16;6315100;28;20231;-72
2021/10/14 13:06:49;;;;;;;1.88;1.25;;;;;;;11.29;89.34;100771.25;6315367;28;20266;-72
2021/10/14 13:09:56;;;;;;;1.10;1.10;;;;;;;11.31;89.33;100773.75;6314237;28;20187;-72
2021/10/14 13:13:01;;;;;;;1.33;1.33;;;;;;;11.28;88.58;100766.00;6315130;28;20293;-72
2021/10/14 13:16:08;;;;;;;1.70;1.60;;;;;;;11.24;87.97;100751.13;6314234;28;20190;-72
2021/10/14 13:19:13;;;;;;;1.30;1.30;;;;;;;11.20;88.59;100750.72;6315033;28;20211;-72
2021/10/14 13:22:19;;;;;;;1.65;1.65;;;;;;;11.30;87.27;100734.66;6315079;28;20184;-72
2021/10/14 13:25:23;;;;;;;2.45;1.60;;;;;;;11.27;87.03;100737.84;6315327;28;20194;-73
2021/10/14 13:28:29;;;;;;;3.03;1.80;;;;;;;11.24;87.19;100724.66;6313905;28;20408;-73
2021/10/14 13:31:35;;;;;;;2.58;1.60;;;;;;;11.29;86.72;100733.00;6313892;28;20445;-73
2021/10/14 13:34:41;;;;;;;1.80;1.60;;;;;;;11.31;86.47;100719.97;6305993;28;20529;-73
2021/10/14 13:37:45;;;;;;;5.05;1.92;;;;;;;11.32;86.03;100718.88;6314382;28;20207;-73
2021/10/14 13:40:53;;;;;;;1.80;1.70;;;;;;;11.30;85.79;100729.19;6316310;28;20184;-73
2021/10/14 13:44:02;;;;;;;1.70;1.60;;;;;;;11.26;85.79;100722.53;6315542;28;20183;-72
2021/10/14 13:47:13;;;;;;;2.53;1.73;;;;;;;11.35;85.15;100714.84;6314497;28;20203;-72
2021/10/14 13:50:18;;;;;;;2.90;1.60;;;;;;;11.25;85.45;100709.91;6313172;28;20196;-72
2021/10/14 13:53:22;;;;;;;1.52;1.52;;;;;;;11.28;84.85;100709.47;6313476;28;20190;-72
2021/10/14 13:56:27;;;;;;;1.48;1.48;;;;;;;11.32;84.41;100698.94;6312877;28;20426;-72
2021/10/14 13:59:31;;;;;;;1.50;1.50;;;;;;;11.18;84.91;100697.38;6313797;28;20238;-72
2021/10/14 14:02:38;;;;;;;2.05;1.58;;;;;;;11.27;84.66;100691.41;6314169;28;20222;-72
2021/10/14 14:05:44;;;;;;;1.60;1.60;;;;;;;11.36;84.40;100682.91;6313222;28;20249;-73
2021/10/14 14:08:48;;;;;;;1.65;1.65;;;;;;;11.36;83.35;100677.47;6312776;28;20337;-72
2021/10/14 14:11:52;;;;;;;7.03;1.42;;;;;;;11.25;84.74;100679.03;6314051;28;20219;-73
2021/10/14 14:14:57;;;;;;;2.70;1.50;;;;;;;11.41;83.39;100680.34;6312815;28;20496;-73
2021/10/14 14:18:02;;;;;;;1.40;1.40;;;;;;;11.24;84.42;100672.75;6313971;28;20184;-72
2021/10/14 14:21:07;;;;;;;4.30;1.65;;;;;;;11.29;84.67;100662.00;6313458;28;20289;-72
2021/10/14 14:24:11;;;;;;;1.55;1.50;;;;;;;11.44;83.26;100652.59;6312380;28;20183;-73
2021/10/14 14:27:15;;;;;;;1.30;1.30;;;;;;;11.44;83.62;100641.66;6312952;28;20187;-72
2021/10/14 14:30:19;;;;;;;1.55;1.42;;;;;;;11.39;83.33;100653.28;6313097;28;20254;-72